Time;durP1;ratioP1;P1;durP2;ratioP2;P2;SDS_P1;SDS_P2;PMS_P1;PMS_P2;Temp;Humidity;BMP_temperature;BMP_pressure;BME280_temperature;BME280_humidity;BME280_pressure;Samples;Min_cycle;Max_cycle;Signal;HPM_P1;HPM_P2
2023/02/24 00:02:03;;;;;;;33.10;20.37;;;9.70;99.90;;;;;;4969887;28;20473;-85
2023/02/24 00:04:39;;;;;;;34.17;20.43;;;9.70;99.90;;;;;;4967270;28;20515;-84
2023/02/24 00:07:16;;;;;;;33.17;21.83;;;9.70;99.90;;;;;;4964804;28;20470;-84
2023/02/24 00:09:45;;;;;;;37.00;23.00;;;9.70;99.90;;;;;;4980602;28;20456;-82
2023/02/24 00:12:15;;;;;;;37.80;24.50;;;9.70;99.90;;;;;;4964507;28;20467;-84
2023/02/24 00:14:44;;;;;;;37.37;22.10;;;9.70;99.90;;;;;;4964615;28;20539;-85
2023/02/24 00:17:15;;;;;;;30.03;20.13;;;9.70;99.90;;;;;;4980068;28;21138;-83
2023/02/24 00:19:45;;;;;;;27.63;18.00;;;9.60;99.90;;;;;;4960913;28;20571;-84
2023/02/24 00:22:12;;;;;;;23.70;14.77;;;9.70;99.90;;;;;;4963615;28;20943;-83
2023/02/24 00:24:42;;;;;;;23.27;14.73;;;9.80;99.90;;;;;;4960869;28;21152;-83
2023/02/24 00:27:12;;;;;;;22.00;13.30;;;9.60;99.90;;;;;;4962268;28;20464;-83
2023/02/24 00:29:40;;;;;;;14.73;11.60;;;9.70;99.90;;;;;;4964238;28;20967;-85
2023/02/24 00:32:11;;;;;;;17.00;9.10;;;9.70;99.90;;;;;;4962890;28;20470;-84
2023/02/24 00:34:39;;;;;;;14.07;9.40;;;9.60;99.90;;;;;;4962015;28;20825;-85
2023/02/24 00:37:07;;;;;;;13.97;7.97;;;9.60;99.90;;;;;;4962097;28;20578;-84
2023/02/24 00:39:35;;;;;;;14.00;7.80;;;9.50;99.90;;;;;;4958741;28;20509;-85
2023/02/24 00:42:05;;;;;;;14.90;6.80;;;9.50;99.90;;;;;;4977469;28;20580;-85
2023/02/24 00:44:38;;;;;;;9.60;6.03;;;9.50;99.90;;;;;;4978323;28;20479;-84
2023/02/24 00:47:07;;;;;;;12.50;6.60;;;9.50;99.90;;;;;;4962500;28;20467;-84
2023/02/24 00:49:40;;;;;;;15.00;6.70;;;9.50;99.90;;;;;;4974081;28;20459;-86
2023/02/24 00:52:12;;;;;;;17.87;8.07;;;9.80;99.90;;;;;;4960508;28;20982;-85
2023/02/24 00:54:41;;;;;;;9.37;7.20;;;9.90;99.90;;;;;;4960539;28;21863;-86
2023/02/24 00:57:09;;;;;;;16.50;8.70;;;9.80;99.90;;;;;;4974466;28;20596;-84
2023/02/24 00:59:37;;;;;;;20.90;9.27;;;9.80;99.90;;;;;;4957014;28;20464;-86
2023/02/24 01:02:05;;;;;;;13.93;8.30;;;9.90;99.90;;;;;;4960794;28;20452;-84
2023/02/24 01:04:36;;;;;;;13.17;7.97;;;9.70;99.90;;;;;;4958706;28;20495;-85
2023/02/24 01:07:09;;;;;;;15.03;8.87;;;9.70;99.90;;;;;;4961269;28;20456;-86
2023/02/24 01:09:38;;;;;;;17.37;7.50;;;9.50;99.90;;;;;;4960578;28;20467;-85
2023/02/24 01:14:56;;;;;;;14.07;7.40;;;9.40;99.90;;;;;;4961094;28;20487;-82
2023/02/24 01:17:24;;;;;;;16.87;7.90;;;9.20;99.90;;;;;;4959579;28;20482;-84
2023/02/24 01:19:51;;;;;;;12.87;7.60;;;9.20;99.90;;;;;;4962191;28;20479;-84
2023/02/24 01:22:19;;;;;;;12.13;8.07;;;9.40;99.90;;;;;;4961725;28;20491;-84
2023/02/24 01:24:46;;;;;;;14.80;7.60;;;9.30;99.90;;;;;;4962067;28;21292;-83
2023/02/24 01:27:18;;;;;;;15.07;7.60;;;9.20;99.90;;;;;;4967861;28;20506;-84
2023/02/24 01:29:48;;;;;;;11.43;8.20;;;9.20;99.90;;;;;;4957993;28;20637;-84
2023/02/24 01:32:18;;;;;;;16.30;8.37;;;9.30;99.90;;;;;;4974671;28;20459;-85
2023/02/24 01:34:47;;;;;;;12.20;7.80;;;9.20;99.90;;;;;;4959481;28;20471;-85
2023/02/24 01:37:15;;;;;;;13.00;9.10;;;9.00;99.90;;;;;;4975549;28;20464;-85
2023/02/24 01:39:44;;;;;;;16.47;8.73;;;9.00;99.90;;;;;;4959734;28;20897;-83
2023/02/24 01:42:15;;;;;;;12.33;8.23;;;9.10;99.90;;;;;;4962993;28;20472;-84
2023/02/24 01:44:42;;;;;;;15.73;8.47;;;9.00;99.90;;;;;;4957269;28;20484;-84
2023/02/24 01:47:10;;;;;;;19.40;9.20;;;8.90;99.90;;;;;;4960543;28;20467;-85
2023/02/24 01:49:39;;;;;;;15.67;9.23;;;9.20;99.90;;;;;;4962154;28;20467;-85
2023/02/24 01:52:20;;;;;;;16.23;8.60;;;9.20;99.90;;;;;;4959214;28;20538;-84
2023/02/24 01:54:59;;;;;;;15.50;9.33;;;9.30;99.90;;;;;;4959727;28;20566;-84
2023/02/24 01:57:31;;;;;;;20.83;9.97;;;9.20;99.90;;;;;;4962037;28;20452;-83
2023/02/24 02:00:18;;;;;;;18.67;9.53;;;9.00;99.90;;;;;;4975239;28;20968;-85
2023/02/24 02:02:50;;;;;;;18.17;9.57;;;9.10;99.90;;;;;;4961546;28;20999;-84
2023/02/24 02:05:17;;;;;;;15.67;9.30;;;9.20;99.90;;;;;;4963687;28;20507;-85
2023/02/24 02:07:44;;;;;;;17.30;8.60;;;9.00;99.90;;;;;;4966702;28;20476;-83
2023/02/24 02:10:12;;;;;;;20.57;10.43;;;9.10;99.90;;;;;;4974387;28;20459;-85
2023/02/24 02:12:42;;;;;;;23.47;12.87;;;9.00;99.90;;;;;;4980661;28;20448;-84
2023/02/24 02:15:19;;;;;;;15.97;8.93;;;9.00;99.90;;;;;;4983514;28;20463;-84
2023/02/24 02:18:04;;;;;;;18.10;10.20;;;9.00;99.90;;;;;;4985185;28;20478;-84
2023/02/24 02:20:46;;;;;;;18.37;10.63;;;9.10;99.90;;;;;;5004939;28;20531;-83
2023/02/24 02:23:52;;;;;;;20.83;10.27;;;9.10;99.90;;;;;;4976655;28;20483;-84
2023/02/24 02:26:39;;;;;;;16.50;7.83;;;9.30;99.90;;;;;;4972507;28;20986;-83
2023/02/24 02:29:50;;;;;;;21.67;11.17;;;9.50;99.90;;;;;;4969598;28;20454;-84
2023/02/24 02:32:50;;;;;;;15.67;8.27;;;9.50;99.90;;;;;;4906830;29;20466;-82
2023/02/24 02:35:25;;;;;;;22.57;9.80;;;9.30;99.90;;;;;;4924625;29;20523;-84
2023/02/24 02:37:57;;;;;;;18.93;8.57;;;9.30;99.90;;;;;;4972434;28;20483;-82
2023/02/24 02:40:36;;;;;;;19.10;10.40;;;9.30;99.90;;;;;;4980743;28;20547;-82
2023/02/24 02:43:03;;;;;;;17.33;9.60;;;9.10;99.90;;;;;;4972243;28;20498;-84
2023/02/24 02:45:48;;;;;;;16.03;10.83;;;9.20;99.90;;;;;;4986646;28;20460;-83
2023/02/24 02:48:19;;;;;;;27.73;12.17;;;9.10;99.90;;;;;;4968492;28;21057;-82
2023/02/24 02:50:54;;;;;;;23.77;11.20;;;9.10;99.90;;;;;;4982214;28;20449;-82
2023/02/24 02:53:39;;;;;;;24.10;11.10;;;9.00;99.90;;;;;;4983980;28;21928;-85
2023/02/24 02:56:21;;;;;;;25.80;11.37;;;8.80;99.90;;;;;;4967351;28;20452;-84
2023/02/24 02:58:52;;;;;;;21.17;9.90;;;8.80;99.90;;;;;;4968655;28;20464;-84
2023/02/24 03:01:23;;;;;;;25.60;12.13;;;8.90;99.90;;;;;;4967100;28;20527;-83
2023/02/24 03:03:54;;;;;;;25.73;11.70;;;8.80;99.90;;;;;;4975183;28;20852;-82
2023/02/24 03:06:29;;;;;;;26.40;12.93;;;8.90;99.90;;;;;;4983522;28;20484;-83
2023/02/24 03:09:17;;;;;;;31.50;12.97;;;9.10;99.90;;;;;;4959603;28;20468;-83
2023/02/24 03:11:47;;;;;;;29.90;12.23;;;9.00;99.90;;;;;;4975453;28;21010;-82
2023/02/24 03:14:18;;;;;;;28.90;12.70;;;8.90;99.90;;;;;;4957829;28;20874;-83
2023/02/24 03:16:50;;;;;;;24.70;13.40;;;8.70;99.90;;;;;;4960499;28;20464;-83
2023/02/24 03:19:22;;;;;;;21.43;12.10;;;8.60;99.90;;;;;;4961645;28;20448;-83
2023/02/24 03:22:05;;;;;;;27.17;13.80;;;8.90;99.90;;;;;;4963282;28;20615;-83
2023/02/24 03:24:37;;;;;;;24.50;12.40;;;9.00;99.90;;;;;;4963772;28;20494;-84
2023/02/24 03:27:11;;;;;;;29.27;14.57;;;9.00;99.90;;;;;;4972389;28;20826;-82
2023/02/24 03:30:06;;;;;;;30.03;14.60;;;8.70;99.90;;;;;;4960197;28;20457;-83
2023/02/24 03:32:54;;;;;;;34.47;14.17;;;8.80;99.90;;;;;;4969862;28;20452;-83
2023/02/24 03:35:26;;;;;;;34.13;14.87;;;8.90;99.90;;;;;;4958415;28;20909;-83
2023/02/24 03:37:56;;;;;;;27.67;14.73;;;8.80;99.90;;;;;;4959752;28;20459;-82
2023/02/24 03:40:28;;;;;;;27.27;15.43;;;8.50;99.90;;;;;;4961996;28;20820;-82
2023/02/24 03:43:18;;;;;;;34.77;15.37;;;8.40;99.90;;;;;;4960559;28;20492;-83
2023/02/24 03:45:45;;;;;;;33.50;14.40;;;8.30;99.90;;;;;;4977626;28;20473;-83
2023/02/24 03:48:13;;;;;;;31.60;12.77;;;8.30;99.90;;;;;;4971865;28;20475;-82
2023/02/24 03:50:41;;;;;;;27.67;15.37;;;8.30;99.90;;;;;;4962005;28;20685;-82
2023/02/24 03:53:43;;;;;;;36.07;13.77;;;8.50;99.90;;;;;;4957046;28;20586;-83
2023/02/24 03:56:39;;;;;;;23.73;11.43;;;8.50;99.90;;;;;;4962012;28;20547;-83
2023/02/24 03:59:13;;;;;;;26.13;10.23;;;8.50;99.90;;;;;;4962878;28;20539;-84
2023/02/24 04:01:50;;;;;;;28.43;9.87;;;8.40;99.90;;;;;;4958114;28;20530;-83
2023/02/24 04:07:15;;;;;;;22.80;10.13;;;8.40;99.90;;;;;;5573669;23;20508;-82
2023/02/24 04:09:46;;;;;;;24.20;10.00;;;8.70;99.90;;;;;;4965787;28;20458;-84
2023/02/24 04:12:38;;;;;;;18.77;8.40;;;8.90;99.70;;;;;;4967692;28;22277;-84
2023/02/24 04:15:11;;;;;;;24.50;9.20;;;8.60;99.60;;;;;;4962772;28;20480;-83
2023/02/24 04:17:46;;;;;;;18.83;7.70;;;8.50;99.90;;;;;;4961632;28;20466;-84
2023/02/24 04:20:17;;;;;;;20.57;8.13;;;8.30;99.90;;;;;;4962731;28;20470;-83
2023/02/24 04:22:49;;;;;;;18.40;7.47;;;8.20;99.90;;;;;;4963364;28;20460;-83
2023/02/24 04:25:23;;;;;;;20.93;8.90;;;8.20;99.90;;;;;;4963119;28;21930;-83
2023/02/24 04:27:57;;;;;;;17.83;7.87;;;8.10;99.90;;;;;;4963969;28;20463;-83
2023/02/24 04:30:27;;;;;;;19.33;6.33;;;8.30;99.90;;;;;;4963018;28;20580;-83
2023/02/24 04:32:55;;;;;;;17.87;6.60;;;8.20;99.90;;;;;;4962496;28;20453;-84
2023/02/24 04:35:25;;;;;;;14.40;6.90;;;8.20;99.90;;;;;;4963323;28;21526;-85
2023/02/24 04:37:52;;;;;;;16.03;6.77;;;8.20;99.90;;;;;;4963209;28;20444;-84
2023/02/24 04:40:21;;;;;;;13.40;5.30;;;8.20;99.90;;;;;;4965191;28;20499;-83
2023/02/24 04:42:50;;;;;;;18.23;6.03;;;8.20;99.90;;;;;;4962927;28;20456;-84
2023/02/24 04:45:20;;;;;;;16.80;5.30;;;8.10;99.90;;;;;;4964692;28;21229;-84
2023/02/24 04:47:50;;;;;;;14.17;5.73;;;8.20;99.90;;;;;;4963646;28;21117;-84
2023/02/24 04:50:24;;;;;;;14.40;6.90;;;8.10;99.90;;;;;;4964177;28;20472;-85
2023/02/24 04:52:54;;;;;;;21.10;5.83;;;8.10;99.90;;;;;;4965697;28;20476;-84
2023/02/24 04:55:23;;;;;;;15.53;9.20;;;8.20;99.90;;;;;;4968147;28;20488;-83
2023/02/24 04:57:56;;;;;;;23.47;8.53;;;8.40;99.90;;;;;;4967301;28;20459;-84
2023/02/24 05:00:25;;;;;;;16.10;7.00;;;8.30;99.90;;;;;;4967376;28;20447;-83
2023/02/24 05:02:55;;;;;;;17.83;6.80;;;8.20;99.90;;;;;;4970158;28;20487;-86
2023/02/24 05:05:58;;;;;;;14.23;6.13;;;8.20;99.90;;;;;;4989756;23;20481;-84
2023/02/24 05:08:27;;;;;;;16.20;5.27;;;8.10;99.90;;;;;;4999452;28;20452;-83
2023/02/24 05:10:55;;;;;;;15.03;6.17;;;8.10;99.90;;;;;;4994709;28;20486;-85
2023/02/24 05:13:26;;;;;;;13.93;5.13;;;8.00;99.90;;;;;;5007577;28;20480;-84
2023/02/24 05:15:55;;;;;;;18.00;6.97;;;8.10;99.90;;;;;;4979275;28;20495;-81
2023/02/24 05:18:25;;;;;;;9.33;4.40;;;8.00;99.90;;;;;;4983853;28;20440;-83
2023/02/24 05:23:43;;;;;;;16.43;5.97;;;8.00;99.90;;;;;;4977817;28;21758;-84
2023/02/24 05:26:15;;;;;;;17.97;6.83;;;8.00;99.90;;;;;;4976805;28;20447;-83
2023/02/24 05:28:47;;;;;;;15.70;6.13;;;8.00;99.90;;;;;;4968705;28;20460;-84
2023/02/24 05:31:27;;;;;;;11.70;4.87;;;8.10;99.90;;;;;;4968100;28;20460;-82
2023/02/24 05:33:56;;;;;;;13.67;4.83;;;8.00;99.90;;;;;;4961344;28;20468;-82
2023/02/24 05:36:25;;;;;;;11.60;4.13;;;8.00;99.90;;;;;;4976647;28;20515;-84
2023/02/24 05:38:56;;;;;;;10.93;4.17;;;8.00;99.90;;;;;;4980663;28;20503;-83
2023/02/24 05:41:31;;;;;;;9.13;4.30;;;8.00;99.90;;;;;;4977804;28;20467;-83
2023/02/24 05:44:01;;;;;;;10.93;4.90;;;8.00;99.90;;;;;;4979883;28;21006;-84
2023/02/24 05:46:31;;;;;;;11.73;4.57;;;7.90;99.90;;;;;;4980028;28;20459;-83
2023/02/24 05:49:01;;;;;;;13.47;4.63;;;7.90;99.90;;;;;;4968504;28;20581;-83
2023/02/24 05:51:34;;;;;;;14.33;5.00;;;7.90;99.90;;;;;;4971732;28;20463;-82
2023/02/24 05:54:03;;;;;;;12.90;4.60;;;7.90;99.90;;;;;;4999901;28;20455;-84
2023/02/24 06:07:26;;;;;;;11.10;4.40;;;7.80;99.90;;;;;;5039132;22;20505;-84
2023/02/24 06:12:46;;;;;;;15.70;4.30;;;7.70;99.90;;;;;;5447572;23;20499;-82
2023/02/24 06:17:52;;;;;;;8.93;4.37;;;7.60;99.90;;;;;;6065271;22;20759;-83
2023/02/24 06:20:38;;;;;;;12.20;5.20;;;7.80;99.90;;;;;;5810280;23;20691;-83
2023/02/24 06:23:25;;;;;;;12.00;4.23;;;7.70;99.90;;;;;;5002702;28;20451;-88
2023/02/24 06:25:56;;;;;;;11.57;4.60;;;7.70;99.90;;;;;;4970890;28;20452;-84
2023/02/24 06:29:00;;;;;;;11.30;4.10;;;7.60;99.90;;;;;;4968985;28;20719;-84
2023/02/24 06:31:50;;;;;;;11.77;3.20;;;7.50;99.90;;;;;;5131768;23;20514;-84
2023/02/24 06:34:26;;;;;;;9.57;3.77;;;7.40;99.90;;;;;;5058659;23;20492;-82
2023/02/24 06:37:02;;;;;;;10.73;3.77;;;7.40;99.90;;;;;;5191750;23;20497;-85
2023/02/24 06:39:31;;;;;;;7.97;3.27;;;7.40;99.90;;;;;;4994926;28;20430;-86
2023/02/24 06:42:07;;;;;;;14.27;3.23;;;7.30;99.90;;;;;;5350100;22;21164;-84
2023/02/24 06:44:37;;;;;;;13.43;4.00;;;7.40;99.90;;;;;;4990474;28;21020;-83
2023/02/24 06:47:06;;;;;;;8.97;3.10;;;7.40;99.90;;;;;;4990134;28;20857;-84
2023/02/24 06:49:33;;;;;;;8.83;3.10;;;7.40;99.90;;;;;;4974812;28;20465;-81
2023/02/24 06:52:03;;;;;;;12.23;2.90;;;7.40;99.90;;;;;;4978596;28;20509;-83
2023/02/24 06:54:34;;;;;;;15.77;3.93;;;7.40;99.90;;;;;;4976677;28;20570;-83
2023/02/24 06:57:23;;;;;;;13.07;2.87;;;7.50;99.90;;;;;;5101243;22;20491;-83
2023/02/24 06:59:51;;;;;;;12.87;3.00;;;7.50;99.60;;;;;;4974516;28;20451;-85
2023/02/24 07:04:54;;;;;;;8.47;2.80;;;7.50;98.80;;;;;;5008926;23;20455;-83
2023/02/24 07:07:21;;;;;;;9.93;2.40;;;7.50;98.50;;;;;;4991824;28;20466;-84
2023/02/24 07:12:26;;;;;;;9.57;2.83;;;7.60;98.20;;;;;;5338337;22;20622;-82
2023/02/24 07:14:52;;;;;;;6.23;2.20;;;7.60;97.80;;;;;;4962949;28;20468;-83
2023/02/24 07:17:22;;;;;;;8.70;2.50;;;7.60;97.60;;;;;;4979281;28;20456;-83
2023/02/24 07:19:49;;;;;;;9.93;2.40;;;7.60;97.50;;;;;;4980038;28;20538;-84
2023/02/24 07:22:23;;;;;;;6.80;3.20;;;7.60;97.00;;;;;;4962166;28;20463;-85
2023/02/24 07:24:59;;;;;;;8.27;2.50;;;7.60;96.70;;;;;;4979771;28;20519;-82
2023/02/24 07:27:26;;;;;;;5.37;2.23;;;7.60;96.40;;;;;;4960764;28;20444;-84
2023/02/24 07:29:53;;;;;;;7.20;2.00;;;7.60;96.30;;;;;;4956862;28;20510;-81
2023/02/24 07:34:58;;;;;;;6.43;2.10;;;7.70;96.60;;;;;;5500502;23;20510;-84
2023/02/24 07:37:30;;;;;;;9.43;2.50;;;7.70;96.70;;;;;;4981691;28;20920;-82
2023/02/24 07:39:57;;;;;;;9.20;2.40;;;7.70;96.80;;;;;;4971708;28;20451;-82
2023/02/24 07:42:24;;;;;;;10.87;3.33;;;7.70;96.90;;;;;;4983105;28;20459;-82
2023/02/24 07:44:51;;;;;;;11.50;3.30;;;7.70;97.10;;;;;;4980461;28;20503;-82
2023/02/24 07:47:20;;;;;;;15.43;4.03;;;7.70;97.00;;;;;;4976802;28;20444;-83
2023/02/24 07:49:48;;;;;;;8.80;3.43;;;7.60;97.00;;;;;;4987550;28;20488;-81
2023/02/24 07:52:15;;;;;;;11.50;3.93;;;7.70;97.10;;;;;;4972979;28;20455;-84
2023/02/24 07:54:43;;;;;;;9.17;3.20;;;7.70;97.20;;;;;;4980825;28;20472;-85
2023/02/24 07:57:12;;;;;;;7.97;3.00;;;7.70;97.40;;;;;;4989674;28;20471;-85
2023/02/24 07:59:45;;;;;;;11.73;2.97;;;7.70;97.60;;;;;;4975271;28;20475;-84
2023/02/24 08:02:14;;;;;;;7.00;2.70;;;7.70;97.50;;;;;;4966753;28;20452;-84
2023/02/24 08:04:48;;;;;;;8.40;3.13;;;7.80;97.40;;;;;;4968732;28;20492;-84
2023/02/24 08:07:22;;;;;;;9.50;2.20;;;7.80;97.30;;;;;;4986552;28;20451;-82
2023/02/24 08:12:41;;;;;;;9.30;3.40;;;7.80;97.10;;;;;;4968928;28;20456;-82
2023/02/24 08:15:15;;;;;;;9.53;2.47;;;7.90;97.20;;;;;;4971615;28;20658;-83
2023/02/24 08:17:46;;;;;;;9.67;3.07;;;7.90;97.10;;;;;;4951602;28;20486;-82
2023/02/24 08:22:45;;;;;;;8.87;3.10;;;7.80;96.60;;;;;;4968855;28;20531;-84
2023/02/24 08:25:17;;;;;;;5.70;2.53;;;7.90;96.60;;;;;;4955029;28;20487;-84
2023/02/24 08:27:54;;;;;;;12.30;2.40;;;8.00;96.60;;;;;;4971105;28;20543;-83
2023/02/24 08:30:37;;;;;;;10.50;2.07;;;8.10;96.60;;;;;;4985550;28;20539;-82
2023/02/24 08:33:08;;;;;;;11.13;2.17;;;8.10;96.30;;;;;;4988843;28;20894;-84
2023/02/24 08:35:37;;;;;;;8.23;2.73;;;8.10;96.10;;;;;;4967390;28;20476;-84
2023/02/24 08:38:08;;;;;;;11.80;3.07;;;8.00;95.60;;;;;;4968689;28;20492;-85
2023/02/24 08:40:50;;;;;;;13.53;3.00;;;8.00;95.50;;;;;;4970906;28;20471;-81
2023/02/24 08:46:11;;;;;;;8.27;2.33;;;8.00;95.90;;;;;;4969122;28;20490;-84
2023/02/24 08:48:54;;;;;;;9.03;3.50;;;8.00;96.00;;;;;;4969727;28;20486;-85
2023/02/24 08:51:27;;;;;;;7.77;2.90;;;8.00;96.30;;;;;;4954774;28;20459;-84
2023/02/24 08:54:00;;;;;;;10.63;3.47;;;8.00;96.50;;;;;;4955439;28;20775;-83
2023/02/24 08:56:33;;;;;;;4.87;2.70;;;8.00;96.60;;;;;;4972233;28;20471;-84
2023/02/24 08:59:06;;;;;;;9.73;3.80;;;8.00;96.80;;;;;;4978942;28;21180;-83
2023/02/24 09:01:39;;;;;;;8.20;3.33;;;8.00;96.90;;;;;;4985359;28;20468;-81
2023/02/24 09:04:11;;;;;;;10.33;4.40;;;7.90;97.00;;;;;;4952528;28;20539;-83
2023/02/24 09:06:44;;;;;;;9.63;2.93;;;8.00;97.20;;;;;;4953026;28;20463;-83
2023/02/24 09:09:17;;;;;;;11.90;4.37;;;7.90;97.40;;;;;;4971039;28;20472;-85
2023/02/24 09:11:54;;;;;;;10.80;3.47;;;7.90;97.40;;;;;;4954823;28;20479;-83
2023/02/24 09:14:28;;;;;;;12.03;3.00;;;7.90;97.50;;;;;;4954718;28;20491;-84
2023/02/24 09:17:01;;;;;;;12.10;3.47;;;8.00;97.50;;;;;;4955170;28;20468;-83
2023/02/24 09:22:56;;;;;;;10.23;4.10;;;8.00;97.00;;;;;;4976051;28;20463;-83
2023/02/24 09:28:47;;;;;;;9.30;2.90;;;7.90;96.80;;;;;;4965125;28;20475;-83
2023/02/24 09:31:17;;;;;;;10.20;2.70;;;8.00;97.00;;;;;;4956338;28;20460;-83
2023/02/24 09:33:49;;;;;;;10.23;3.20;;;8.00;96.90;;;;;;4957980;28;20467;-82
2023/02/24 09:36:26;;;;;;;13.40;3.50;;;8.00;96.70;;;;;;4986658;28;20460;-83
2023/02/24 09:41:53;;;;;;;10.30;3.33;;;8.10;96.00;;;;;;4989002;28;20448;-82
2023/02/24 09:44:25;;;;;;;6.30;3.07;;;8.20;95.60;;;;;;4968542;28;20479;-85
2023/02/24 09:46:59;;;;;;;7.07;3.17;;;8.30;95.40;;;;;;4986073;28;20444;-84
2023/02/24 09:49:38;;;;;;;11.27;3.87;;;8.30;95.20;;;;;;5000086;28;20475;-84
2023/02/24 09:52:19;;;;;;;10.90;2.90;;;8.50;94.90;;;;;;4965821;28;20749;-84
2023/02/24 09:58:21;;;;;;;11.30;3.87;;;8.60;94.50;;;;;;4971874;28;21002;-83
2023/02/24 10:00:32;;;;;;;7.10;2.87;;;8.60;94.10;;;;;;4972953;28;20492;-82
2023/02/24 10:03:18;;;;;;;7.37;3.60;;;8.60;93.90;;;;;;4968490;28;20463;-83
2023/02/24 10:05:57;;;;;;;7.53;2.90;;;8.50;93.80;;;;;;4972762;28;20493;-84
2023/02/24 10:08:34;;;;;;;11.83;3.57;;;8.50;94.00;;;;;;4972201;28;20447;-83
2023/02/24 10:11:07;;;;;;;6.00;2.67;;;8.50;93.80;;;;;;4971989;28;20463;-85
2023/02/24 10:13:56;;;;;;;4.90;3.00;;;8.40;93.60;;;;;;4972907;28;20484;-84
2023/02/24 10:16:40;;;;;;;9.83;3.03;;;8.50;93.60;;;;;;4973397;28;20450;-83
2023/02/24 10:19:29;;;;;;;9.50;3.40;;;8.50;93.50;;;;;;4976570;28;20455;-83
2023/02/24 10:22:29;;;;;;;10.37;3.70;;;8.40;93.40;;;;;;4976397;28;20456;-83
2023/02/24 10:25:23;;;;;;;11.17;3.20;;;8.40;93.50;;;;;;4951688;28;20918;-83
2023/02/24 10:28:34;;;;;;;7.27;4.13;;;8.60;93.30;;;;;;4963185;28;20472;-84
2023/02/24 10:31:09;;;;;;;6.70;3.43;;;8.60;93.10;;;;;;4970567;28;20564;-84
2023/02/24 10:33:43;;;;;;;5.60;3.23;;;8.60;92.90;;;;;;4974635;28;20464;-82
2023/02/24 10:36:33;;;;;;;13.30;5.27;;;8.50;92.40;;;;;;4973818;28;20436;-82
2023/02/24 10:39:24;;;;;;;10.90;4.13;;;8.50;92.60;;;;;;4984539;28;20448;-83
2023/02/24 10:41:57;;;;;;;8.60;3.67;;;8.50;92.70;;;;;;4970842;28;20446;-82
2023/02/24 10:44:34;;;;;;;7.67;3.30;;;8.40;92.80;;;;;;5006408;28;20735;-84
2023/02/24 10:47:11;;;;;;;8.07;3.80;;;8.40;93.00;;;;;;4991352;28;20470;-84
2023/02/24 10:49:55;;;;;;;10.00;3.80;;;8.40;93.10;;;;;;4993623;28;20443;-83
2023/02/24 10:52:52;;;;;;;11.90;3.67;;;8.40;93.20;;;;;;4994168;28;20480;-84
2023/02/24 10:58:27;;;;;;;7.87;3.90;;;8.30;93.30;;;;;;4990042;28;20456;-85
2023/02/24 11:01:11;;;;;;;11.10;3.77;;;8.30;93.60;;;;;;4980503;28;20502;-84
2023/02/24 11:03:59;;;;;;;5.87;3.87;;;8.30;93.30;;;;;;4958613;28;20483;-82
2023/02/24 11:06:40;;;;;;;12.20;3.60;;;8.30;93.20;;;;;;4973910;28;20511;-84
2023/02/24 11:09:18;;;;;;;5.83;3.23;;;8.30;93.00;;;;;;4985555;28;20464;-83
2023/02/24 11:17:50;;;;;;;7.40;3.23;;;8.10;92.60;;;;;;4973713;28;20460;-84
2023/02/24 11:20:41;;;;;;;4.67;2.70;;;8.10;92.50;;;;;;4957951;28;20456;-83
2023/02/24 11:23:26;;;;;;;8.80;3.17;;;8.10;92.30;;;;;;4972091;28;20458;-83
2023/02/24 11:25:59;;;;;;;6.27;3.53;;;8.10;92.50;;;;;;4992656;28;20476;-85
2023/02/24 11:29:05;;;;;;;6.90;3.63;;;8.10;92.50;;;;;;4965171;28;20516;-83
2023/02/24 11:31:35;;;;;;;8.30;3.80;;;8.10;92.60;;;;;;4969432;28;20478;-85
2023/02/24 11:34:09;;;;;;;6.67;3.10;;;8.10;92.70;;;;;;4981194;28;20633;-85
2023/02/24 11:37:05;;;;;;;11.70;3.53;;;8.10;92.70;;;;;;4995798;28;20515;-84
2023/02/24 11:39:47;;;;;;;5.27;2.53;;;8.00;92.90;;;;;;4978726;28;20460;-83
2023/02/24 11:42:20;;;;;;;8.70;2.93;;;8.10;93.40;;;;;;4975697;28;20490;-83
2023/02/24 11:44:53;;;;;;;9.77;4.80;;;8.00;93.50;;;;;;4958537;28;20492;-83
2023/02/24 11:47:29;;;;;;;8.30;4.20;;;8.00;94.10;;;;;;4975983;28;20990;-85
2023/02/24 11:50:31;;;;;;;10.20;3.30;;;8.00;94.70;;;;;;4960473;28;20488;-85
2023/02/24 11:53:04;;;;;;;6.70;2.77;;;7.90;94.90;;;;;;4973735;28;20448;-85
2023/02/24 11:55:41;;;;;;;6.33;3.13;;;7.90;95.10;;;;;;4993682;28;20494;-83
2023/02/24 11:58:29;;;;;;;5.40;3.30;;;7.80;95.40;;;;;;4961182;28;20536;-84
2023/02/24 12:01:08;;;;;;;10.90;4.33;;;7.80;95.40;;;;;;4975013;28;20471;-84
2023/02/24 12:03:48;;;;;;;7.27;3.40;;;7.70;95.30;;;;;;4978391;28;20504;-85
2023/02/24 12:06:41;;;;;;;6.57;2.80;;;7.70;95.60;;;;;;4960341;28;20467;-84
2023/02/24 12:09:24;;;;;;;8.10;2.90;;;7.70;95.70;;;;;;4980437;28;20456;-85
2023/02/24 12:12:10;;;;;;;8.57;3.70;;;7.60;95.80;;;;;;4964113;28;20456;-83
2023/02/24 12:14:50;;;;;;;8.50;3.67;;;7.60;96.30;;;;;;4979780;28;20465;-83
2023/02/24 12:17:35;;;;;;;8.50;3.50;;;7.90;96.50;;;;;;4966910;28;22189;-84
2023/02/24 12:20:37;;;;;;;5.97;3.67;;;7.80;96.50;;;;;;4984344;28;20481;-83
2023/02/24 12:23:16;;;;;;;8.57;3.40;;;7.70;97.00;;;;;;4974047;28;20462;-86
2023/02/24 12:25:57;;;;;;;7.07;3.40;;;8.00;97.20;;;;;;4971532;28;20505;-84
2023/02/24 12:28:43;;;;;;;6.47;3.23;;;7.90;97.10;;;;;;4967366;28;20439;-84
2023/02/24 12:35:58;;;;;;;11.43;3.70;;;7.80;97.10;;;;;;4989099;28;20475;-83
2023/02/24 12:59:37;;;;;;;3.83;3.10;;;7.70;98.20;;;;;;4989153;28;20434;-83
2023/02/24 13:02:30;;;;;;;6.80;4.57;;;7.70;98.20;;;;;;4970181;28;20499;-84
2023/02/24 13:05:16;;;;;;;5.80;3.90;;;7.70;98.70;;;;;;4978965;28;20489;-84
2023/02/24 13:08:09;;;;;;;4.33;3.30;;;7.70;99.00;;;;;;5005633;28;20498;-85
2023/02/24 13:11:02;;;;;;;6.30;3.70;;;7.70;99.10;;;;;;4992509;28;20514;-84
2023/02/24 13:13:49;;;;;;;6.57;3.20;;;7.70;99.40;;;;;;4998318;28;20495;-86
2023/02/24 13:16:35;;;;;;;7.73;3.80;;;7.80;99.50;;;;;;4976458;28;20526;-84
2023/02/24 13:19:35;;;;;;;5.73;3.90;;;7.80;99.70;;;;;;4991003;28;20455;-84
2023/02/24 13:22:19;;;;;;;6.47;3.90;;;7.70;99.60;;;;;;4995569;28;20434;-85
2023/02/24 13:28:02;;;;;;;9.60;4.27;;;7.60;99.70;;;;;;1230111;26;20483;-84
2023/02/24 13:30:41;;;;;;;8.37;3.83;;;7.50;99.90;;;;;;4989511;28;20463;-84
2023/02/24 13:33:18;;;;;;;9.20;4.27;;;7.50;99.90;;;;;;4965539;28;20466;-85
2023/02/24 13:36:22;;;;;;;8.70;4.43;;;7.50;99.90;;;;;;4979266;28;21080;-85
2023/02/24 13:41:28;;;;;;;16.20;4.00;;;7.40;99.90;;;;;;5145291;23;20538;-86
2023/02/24 13:43:59;;;;;;;8.93;3.73;;;7.40;99.90;;;;;;4981679;28;20471;-85
2023/02/24 13:47:05;;;;;;;7.00;3.97;;;7.50;99.90;;;;;;4960813;28;20591;-84
2023/02/24 13:50:04;;;;;;;12.20;4.57;;;7.40;99.90;;;;;;5177434;23;20481;-84
2023/02/24 13:52:50;;;;;;;11.30;4.40;;;7.30;99.90;;;;;;4977024;28;20481;-84
2023/02/24 13:55:35;;;;;;;6.53;3.23;;;7.40;99.90;;;;;;4963548;28;20479;-84
2023/02/24 13:58:17;;;;;;;9.70;4.50;;;7.40;99.90;;;;;;4963179;28;20481;-84
2023/02/24 14:01:04;;;;;;;10.10;4.00;;;7.40;99.90;;;;;;4959979;28;20460;-82
2023/02/24 14:03:43;;;;;;;10.10;4.17;;;7.40;99.90;;;;;;4964618;28;20471;-83
2023/02/24 14:06:27;;;;;;;8.83;3.70;;;7.50;99.90;;;;;;4959595;28;20508;-85
2023/02/24 14:12:40;;;;;;;4.73;2.70;;;7.40;99.90;;;;;;5510601;22;20491;-86
2023/02/24 14:18:00;;;;;;;6.03;3.40;;;7.40;99.90;;;;;;5324167;23;20449;-84
2023/02/24 14:20:40;;;;;;;7.70;3.50;;;7.40;99.90;;;;;;4946610;28;20475;-84
2023/02/24 14:23:45;;;;;;;3.27;2.37;;;7.40;99.90;;;;;;5521736;22;20969;31
2023/02/24 14:26:17;;;;;;;5.83;3.13;;;7.40;99.90;;;;;;4987691;28;21368;-85
2023/02/24 14:29:02;;;;;;;4.60;3.17;;;7.40;99.90;;;;;;4974370;28;20454;-84
2023/02/24 14:31:29;;;;;;;6.47;2.80;;;7.40;99.90;;;;;;4991458;28;20606;-82
2023/02/24 14:34:04;;;;;;;7.93;3.03;;;7.50;99.90;;;;;;4993008;28;20518;-86
2023/02/24 14:36:36;;;;;;;10.53;3.10;;;7.40;99.90;;;;;;4977592;28;20443;-85
2023/02/24 14:42:10;;;;;;;12.30;2.90;;;7.40;99.90;;;;;;5021635;23;20966;-84
2023/02/24 14:44:50;;;;;;;11.70;3.53;;;7.30;99.90;;;;;;5172068;23;20503;-84
2023/02/24 14:47:20;;;;;;;6.60;2.97;;;7.30;99.90;;;;;;4969506;28;20486;-84
2023/02/24 14:52:28;;;;;;;6.23;3.00;;;7.30;99.90;;;;;;4922420;23;20491;-84
2023/02/24 14:55:07;;;;;;;7.53;3.07;;;7.20;99.90;;;;;;4633493;23;20763;-83
2023/02/24 14:58:00;;;;;;;7.47;3.60;;;7.30;99.90;;;;;;5023556;28;20588;-86
2023/02/24 15:03:14;;;;;;;7.13;2.73;;;7.30;99.90;;;;;;4984504;28;20480;-86
2023/02/24 15:05:48;;;;;;;8.83;3.90;;;7.40;99.90;;;;;;4942284;29;20461;-84
2023/02/24 15:08:39;;;;;;;6.23;3.13;;;7.30;99.90;;;;;;4951717;29;20453;-83
2023/02/24 15:11:28;;;;;;;6.63;4.63;;;7.30;99.90;;;;;;4933776;28;20485;-85
2023/02/24 15:14:06;;;;;;;7.20;3.70;;;7.30;99.90;;;;;;4996688;23;20522;-86
2023/02/24 15:21:51;;;;;;;8.13;3.87;;;7.30;99.90;;;;;;4985104;23;20506;-84
2023/02/24 15:24:30;;;;;;;7.03;3.40;;;7.30;99.90;;;;;;4963759;28;20515;-84
2023/02/24 15:27:13;;;;;;;6.27;3.70;;;7.30;99.90;;;;;;4976411;28;20476;-85
2023/02/24 15:29:43;;;;;;;13.73;4.20;;;7.30;99.90;;;;;;4981776;28;20955;-84
2023/02/24 15:32:22;;;;;;;7.23;3.33;;;7.40;99.90;;;;;;4969601;28;21884;-84